Time;durP1;ratioP1;P1;durP2;ratioP2;P2;SDS_P1;SDS_P2;PMS_P1;PMS_P2;Temp;Humidity;BMP_temperature;BMP_pressure;BME280_temperature;BME280_humidity;BME280_pressure;Samples;Min_cycle;Max_cycle;Signal;HPM_P1;HPM_P2
2021/09/30 00:00:23;;;;;;;12.00;2.67;;;9.90;99.90;;;;;;2079695;28;20712;-61
2021/09/30 00:01:24;;;;;;;15.52;2.47;;;10.00;99.90;;;;;;2072932;28;20049;-61
2021/09/30 00:02:25;;;;;;;15.20;2.15;;;9.90;99.90;;;;;;2077269;28;20616;-61
2021/09/30 00:03:25;;;;;;;17.48;2.63;;;10.00;99.90;;;;;;2078184;28;20056;-60
2021/09/30 00:04:26;;;;;;;19.15;2.42;;;10.00;99.90;;;;;;2079237;28;20401;-60
2021/09/30 00:05:27;;;;;;;16.05;2.58;;;10.10;99.90;;;;;;2087312;28;20028;-60
2021/09/30 00:06:29;;;;;;;11.45;2.17;;;10.10;99.90;;;;;;2083884;28;20022;-61
2021/09/30 00:07:30;;;;;;;11.10;1.80;;;10.10;99.90;;;;;;2078789;28;20029;-61
2021/09/30 00:08:31;;;;;;;16.25;2.30;;;10.10;99.90;;;;;;2083795;28;20116;-60
2021/09/30 00:09:32;;;;;;;13.95;2.25;;;10.10;99.90;;;;;;2086884;28;20096;-61
2021/09/30 00:10:33;;;;;;;13.60;2.83;;;10.10;99.90;;;;;;2070639;28;20052;-60
2021/09/30 00:11:38;;;;;;;12.07;2.10;;;10.10;99.90;;;;;;2073180;28;20030;-60
2021/09/30 00:12:46;;;;;;;14.93;2.20;;;10.10;99.90;;;;;;2077136;28;20112;-60
2021/09/30 00:15:11;;;;;;;17.40;2.15;;;10.20;99.90;;;;;;2072563;28;20029;-61
2021/09/30 00:35:41;;;;;;;12.95;1.92;;;10.50;99.90;;;;;;2066184;28;20073;-60
2021/09/30 00:42:25;;;;;;;17.13;2.50;;;10.90;99.90;;;;;;2080156;28;20037;-61
2021/09/30 00:47:41;;;;;;;12.00;1.58;;;10.80;99.90;;;;;;2055105;28;20039;-60
2021/09/30 01:22:43;;;;;;;15.07;1.83;;;11.60;99.90;;;;;;2072753;28;20041;-61
2021/09/30 02:22:37;;;;;;;10.88;2.20;;;9.40;99.90;;;;;;2068851;28;20037;-61
2021/09/30 02:30:30;;;;;;;10.00;1.70;;;9.20;99.90;;;;;;2067421;28;20026;-60
2021/09/30 02:58:55;;;;;;;9.77;1.30;;;8.80;99.90;;;;;;2072158;28;20038;-60
2021/09/30 02:59:58;;;;;;;15.35;2.70;;;8.80;99.90;;;;;;2068916;28;20026;-62
2021/09/30 03:01:04;;;;;;;14.00;1.80;;;8.80;99.90;;;;;;2078818;28;20511;-61
2021/09/30 03:02:06;;;;;;;11.20;2.63;;;8.90;99.90;;;;;;2072151;28;20064;-60
2021/09/30 03:03:10;;;;;;;12.52;1.40;;;8.90;99.90;;;;;;2072328;28;20613;-60
2021/09/30 03:04:12;;;;;;;7.53;1.52;;;8.90;99.90;;;;;;2077195;28;20030;-61
2021/09/30 03:05:14;;;;;;;13.68;2.30;;;8.80;99.90;;;;;;2079620;28;20032;-61
2021/09/30 03:06:15;;;;;;;20.30;1.83;;;8.90;99.90;;;;;;2080159;28;20033;-61
2021/09/30 03:07:17;;;;;;;9.05;1.77;;;8.80;99.90;;;;;;2067730;28;20029;-61
2021/09/30 03:08:18;;;;;;;11.07;1.83;;;8.80;99.90;;;;;;2070627;28;20104;-60
2021/09/30 03:09:20;;;;;;;9.37;1.80;;;8.80;99.90;;;;;;2065597;28;20556;-60
2021/09/30 03:10:23;;;;;;;;;;;8.80;99.90;;;;;;2069444;28;20253;-60
2021/09/30 03:11:25;;;;;;;10.32;1.65;;;8.80;99.90;;;;;;2064313;28;19906;-60
2021/09/30 03:12:30;;;;;;;10.02;1.88;;;8.80;99.90;;;;;;2075475;28;20022;-60
2021/09/30 03:13:33;;;;;;;11.93;1.50;;;8.70;99.90;;;;;;2058660;28;20030;-60
2021/09/30 03:14:42;;;;;;;11.30;1.77;;;8.70;99.90;;;;;;2071596;28;20028;-60
2021/09/30 03:15:48;;;;;;;12.82;1.75;;;8.70;99.90;;;;;;2073732;28;20471;-61
2021/09/30 03:16:52;;;;;;;6.60;1.63;;;8.70;99.90;;;;;;2078114;28;20021;-61
2021/09/30 03:18:24;;;;;;;12.40;1.63;;;8.70;99.90;;;;;;2071988;28;20061;-60
2021/09/30 03:20:53;;;;;;;13.98;1.98;;;8.60;99.90;;;;;;2076393;28;20677;-60
2021/09/30 03:23:20;;;;;;;10.73;1.70;;;8.70;99.90;;;;;;2064270;28;20133;-60
2021/09/30 03:24:21;;;;;;;8.45;1.30;;;8.70;99.90;;;;;;2075209;28;20021;-61
2021/09/30 03:25:22;;;;;;;17.42;1.80;;;8.70;99.90;;;;;;2080064;28;20028;-60
2021/09/30 03:26:25;;;;;;;16.45;1.85;;;8.70;99.90;;;;;;2073733;28;20672;-61
2021/09/30 03:27:27;;;;;;;11.40;1.63;;;8.70;99.90;;;;;;2072220;28;20098;-60
2021/09/30 03:28:29;;;;;;;10.45;1.70;;;8.70;99.90;;;;;;2071695;28;20025;-60
2021/09/30 03:29:31;;;;;;;8.13;1.73;;;8.70;99.90;;;;;;2073233;28;20029;-61
2021/09/30 03:30:32;;;;;;;14.05;2.38;;;8.70;99.90;;;;;;2066619;28;20022;-61
2021/09/30 03:31:33;;;;;;;13.55;1.70;;;8.70;99.90;;;;;;2072243;28;20038;-60
2021/09/30 03:32:34;;;;;;;12.05;1.60;;;8.70;99.90;;;;;;2073670;28;20031;-60
2021/09/30 03:33:36;;;;;;;11.75;1.50;;;8.70;99.90;;;;;;2067157;28;20030;-60
2021/09/30 03:34:37;;;;;;;9.13;1.65;;;8.70;99.90;;;;;;2071678;28;20022;-60
2021/09/30 03:35:39;;;;;;;10.45;1.40;;;8.70;99.90;;;;;;2071351;28;20066;-61
2021/09/30 03:36:40;;;;;;;12.50;1.92;;;8.80;99.90;;;;;;2072211;28;20022;-60
2021/09/30 03:37:40;;;;;;;11.65;1.63;;;8.80;99.90;;;;;;2079849;28;20067;-60
2021/09/30 03:38:41;;;;;;;10.50;1.20;;;8.80;99.90;;;;;;2079476;28;20025;-60
2021/09/30 03:39:43;;;;;;;12.02;1.67;;;8.80;99.90;;;;;;2071963;28;20029;-60
2021/09/30 03:40:44;;;;;;;11.88;1.52;;;8.80;99.90;;;;;;2072378;28;20026;-60
2021/09/30 03:41:44;;;;;;;10.90;1.60;;;8.80;99.90;;;;;;2079457;28;20461;-60
2021/09/30 03:42:45;;;;;;;9.63;1.85;;;8.70;99.90;;;;;;2079578;28;20384;-60
2021/09/30 03:43:46;;;;;;;20.40;1.85;;;8.80;99.90;;;;;;2067636;28;20022;-60
2021/09/30 03:44:47;;;;;;;12.88;2.28;;;8.70;99.90;;;;;;2071527;28;20475;-60
2021/09/30 03:45:48;;;;;;;7.97;1.33;;;8.70;99.90;;;;;;2078145;28;20017;-60
2021/09/30 03:46:52;;;;;;;10.88;1.38;;;8.70;99.90;;;;;;2079717;28;20021;-60
2021/09/30 03:47:53;;;;;;;10.40;1.58;;;8.70;99.90;;;;;;2071764;28;20733;-60
2021/09/30 03:48:56;;;;;;;10.07;2.33;;;8.60;99.90;;;;;;2072595;28;20048;-61
2021/09/30 03:49:57;;;;;;;8.65;1.52;;;8.70;99.90;;;;;;2080124;28;20025;-60
2021/09/30 03:51:19;;;;;;;8.25;1.65;;;8.60;99.90;;;;;;2082016;28;20068;-60
2021/09/30 03:53:40;;;;;;;7.60;1.40;;;8.60;99.90;;;;;;2069808;28;20099;-60
2021/09/30 03:56:07;;;;;;;8.05;1.45;;;8.50;99.90;;;;;;2078944;28;20101;-60
2021/09/30 03:57:38;;;;;;;12.45;1.40;;;8.50;99.90;;;;;;2078040;28;20018;-61
2021/09/30 03:59:51;;;;;;;10.10;2.10;;;8.40;99.90;;;;;;2073747;28;20026;-60
2021/09/30 04:00:51;;;;;;;12.50;1.55;;;8.40;99.90;;;;;;2076351;28;20080;-61
2021/09/30 04:01:57;;;;;;;8.77;1.52;;;8.40;99.90;;;;;;2072955;28;20082;-60
2021/09/30 04:02:58;;;;;;;8.80;1.33;;;8.40;99.90;;;;;;2073543;28;20068;-60
2021/09/30 04:03:58;;;;;;;10.95;1.92;;;8.40;99.90;;;;;;2077053;28;20025;-60
2021/09/30 04:04:59;;;;;;;6.55;1.90;;;8.40;99.90;;;;;;2081890;28;20620;-61
2021/09/30 04:06:01;;;;;;;12.77;1.73;;;8.30;99.90;;;;;;2068875;28;20578;-60
2021/09/30 04:07:06;;;;;;;10.77;1.70;;;8.30;99.90;;;;;;2066418;28;20025;-61
2021/09/30 04:08:06;;;;;;;7.32;1.60;;;8.30;99.90;;;;;;2073811;28;20018;-60
2021/09/30 04:09:09;;;;;;;9.15;1.60;;;8.30;99.90;;;;;;2077457;28;20047;-60
2021/09/30 04:10:10;;;;;;;5.55;2.03;;;8.20;99.90;;;;;;2078779;28;20053;-60
2021/09/30 04:11:11;;;;;;;9.93;1.65;;;8.20;99.90;;;;;;2071647;28;20397;-60
2021/09/30 04:12:12;;;;;;;13.50;1.77;;;8.20;99.90;;;;;;2073381;28;20109;-60
2021/09/30 04:13:13;;;;;;;7.43;1.63;;;8.20;99.90;;;;;;2065572;28;20049;-60
2021/09/30 04:14:13;;;;;;;10.38;1.48;;;8.20;99.90;;;;;;2069360;28;20721;-60
2021/09/30 04:15:14;;;;;;;10.32;1.60;;;8.10;99.90;;;;;;2073629;28;20160;-61
2021/09/30 04:16:15;;;;;;;7.57;1.58;;;8.10;99.90;;;;;;2079343;28;20033;-60
2021/09/30 04:17:15;;;;;;;9.38;1.63;;;8.10;99.90;;;;;;2078314;28;20401;-60
2021/09/30 04:18:17;;;;;;;15.35;1.73;;;8.10;99.90;;;;;;2063679;28;20054;-60
2021/09/30 04:19:20;;;;;;;10.75;1.98;;;8.00;99.90;;;;;;2068736;28;20590;-60
2021/09/30 04:20:21;;;;;;;10.15;2.00;;;8.00;99.90;;;;;;2073206;28;20037;-60
2021/09/30 04:21:22;;;;;;;8.13;1.40;;;8.00;99.90;;;;;;2073309;28;20054;-60
2021/09/30 04:22:23;;;;;;;8.55;1.75;;;8.00;99.90;;;;;;2073391;28;20477;-60
2021/09/30 04:23:23;;;;;;;8.70;1.80;;;7.90;99.90;;;;;;2081206;28;20120;-60
2021/09/30 04:24:25;;;;;;;8.15;2.40;;;7.90;99.90;;;;;;2075115;28;20114;-60
2021/09/30 04:25:26;;;;;;;14.63;2.80;;;7.90;99.90;;;;;;2065208;28;20494;-60
2021/09/30 04:26:27;;;;;;;11.30;2.33;;;7.90;99.90;;;;;;2068071;28;20068;-60
2021/09/30 04:27:27;;;;;;;7.10;1.40;;;7.90;99.90;;;;;;2073040;28;20072;-61
2021/09/30 04:28:28;;;;;;;11.40;1.73;;;7.80;99.90;;;;;;2081128;28;20036;-60
2021/09/30 04:29:29;;;;;;;10.93;1.80;;;7.80;99.90;;;;;;2069528;28;20014;-60
2021/09/30 04:30:30;;;;;;;12.00;2.03;;;7.80;99.90;;;;;;2072715;28;20022;-60
2021/09/30 04:31:31;;;;;;;16.38;2.60;;;7.80;99.90;;;;;;2073004;28;20074;-60
2021/09/30 04:32:31;;;;;;;12.70;2.53;;;7.70;99.90;;;;;;2072950;28;20029;-60
2021/09/30 04:33:32;;;;;;;8.85;1.70;;;7.70;99.90;;;;;;2073559;28;20029;-60
2021/09/30 04:34:33;;;;;;;6.80;1.60;;;7.70;99.90;;;;;;2069269;28;20035;-61
2021/09/30 04:35:34;;;;;;;8.48;1.65;;;7.70;99.90;;;;;;2069268;28;20031;-60
2021/09/30 04:36:34;;;;;;;12.20;1.88;;;7.70;99.90;;;;;;2072212;28;20394;-61
2021/09/30 04:37:35;;;;;;;9.65;2.00;;;7.70;99.90;;;;;;2080817;28;20027;-60
2021/09/30 04:38:36;;;;;;;13.77;2.50;;;7.70;99.90;;;;;;2069802;28;20128;-60
2021/09/30 04:39:36;;;;;;;7.50;1.83;;;7.70;99.90;;;;;;2072200;28;20025;-60
2021/09/30 04:40:37;;;;;;;8.43;1.85;;;7.70;99.90;;;;;;2078250;28;20079;-61
2021/09/30 04:41:38;;;;;;;14.57;3.08;;;7.70;99.90;;;;;;2074931;28;20113;-60
2021/09/30 04:42:39;;;;;;;9.33;1.53;;;7.70;99.90;;;;;;2081578;28;20021;-60
2021/09/30 04:43:40;;;;;;;12.75;1.55;;;7.70;99.90;;;;;;2081199;28;20264;-61
2021/09/30 04:44:41;;;;;;;11.35;2.15;;;7.70;99.90;;;;;;2081349;28;20018;-60
2021/09/30 04:45:41;;;;;;;16.92;2.17;;;7.70;99.90;;;;;;2068645;28;20486;-60
2021/09/30 04:46:42;;;;;;;12.15;1.85;;;7.80;99.90;;;;;;2072518;28;20238;-61
2021/09/30 04:47:43;;;;;;;11.98;2.20;;;7.90;99.90;;;;;;2073120;28;20065;-60
2021/09/30 04:48:43;;;;;;;10.77;1.70;;;7.90;99.90;;;;;;2072826;28;20022;-60
2021/09/30 04:49:44;;;;;;;12.65;1.85;;;8.00;99.90;;;;;;2078313;28;20025;-60
2021/09/30 04:50:45;;;;;;;9.35;1.95;;;8.00;99.90;;;;;;2073998;28;20474;-60
2021/09/30 04:51:45;;;;;;;10.38;1.70;;;8.00;99.90;;;;;;2074342;28;20037;-61
2021/09/30 04:52:46;;;;;;;12.88;1.95;;;8.00;99.90;;;;;;2081458;28;20049;-60
2021/09/30 04:53:47;;;;;;;8.00;1.40;;;8.00;99.90;;;;;;2070655;28;20053;-60
2021/09/30 04:54:49;;;;;;;12.23;2.00;;;8.00;99.90;;;;;;2072769;28;20030;-60
2021/09/30 04:55:50;;;;;;;;;;;8.00;99.90;;;;;;2067893;28;20022;-60
2021/09/30 04:56:50;;;;;;;12.70;1.92;;;8.00;99.90;;;;;;2066210;28;19917;-60
2021/09/30 04:57:51;;;;;;;13.20;1.80;;;8.00;99.90;;;;;;2064779;28;20517;-60
2021/09/30 04:58:51;;;;;;;8.93;1.70;;;8.00;99.90;;;;;;2072226;28;20493;-60
2021/09/30 04:59:52;;;;;;;8.73;1.85;;;8.10;99.90;;;;;;2075203;28;20048;-60
2021/09/30 05:00:53;;;;;;;14.55;1.98;;;8.00;99.90;;;;;;2072597;28;20087;-61
2021/09/30 05:01:54;;;;;;;11.15;1.92;;;8.10;99.90;;;;;;2072757;28;20034;-60
2021/09/30 05:02:54;;;;;;;9.23;1.42;;;8.10;99.90;;;;;;2080536;28;20481;-60
2021/09/30 05:03:55;;;;;;;11.27;1.67;;;8.10;99.90;;;;;;2083554;28;20046;-60
2021/09/30 05:04:56;;;;;;;11.23;1.52;;;8.10;99.90;;;;;;2081274;28;20450;-60
2021/09/30 05:05:57;;;;;;;6.82;1.50;;;8.10;99.90;;;;;;2080546;28;20060;-60
2021/09/30 05:06:59;;;;;;;11.23;1.92;;;8.10;99.90;;;;;;2081004;28;20017;-60
2021/09/30 05:07:59;;;;;;;10.98;2.13;;;8.20;99.90;;;;;;2064752;28;20033;-61
2021/09/30 05:09:01;;;;;;;13.30;1.50;;;8.20;99.90;;;;;;2068154;28;20026;-61
2021/09/30 05:10:04;;;;;;;9.38;1.65;;;8.10;99.90;;;;;;2073022;28;20072;-61
2021/09/30 05:11:04;;;;;;;13.70;1.75;;;8.10;99.90;;;;;;2072866;28;20025;-61
2021/09/30 05:12:08;;;;;;;10.52;1.88;;;8.10;99.90;;;;;;2072724;28;20401;-60
2021/09/30 05:13:11;;;;;;;13.15;1.83;;;8.10;99.90;;;;;;2073080;28;20111;-61
2021/09/30 05:14:12;;;;;;;10.95;1.42;;;8.10;99.90;;;;;;2069312;28;20028;-61
2021/09/30 05:15:13;;;;;;;10.95;1.60;;;8.10;99.90;;;;;;2072222;28;20049;-61
2021/09/30 05:16:14;;;;;;;9.85;2.28;;;8.10;99.90;;;;;;2072103;28;20535;-61
2021/09/30 05:17:15;;;;;;;9.88;1.63;;;8.10;99.90;;;;;;2069545;28;20454;-61
2021/09/30 05:18:16;;;;;;;11.48;1.65;;;8.10;99.90;;;;;;2072389;28;20026;-61
2021/09/30 05:19:16;;;;;;;14.02;1.75;;;8.10;99.90;;;;;;2072619;28;20025;-61
2021/09/30 05:20:17;;;;;;;16.73;2.00;;;8.10;99.90;;;;;;2073116;28;20041;-61
2021/09/30 05:21:18;;;;;;;9.00;1.83;;;8.10;99.90;;;;;;2079121;28;20040;-60
2021/09/30 05:22:18;;;;;;;11.20;1.80;;;8.10;99.90;;;;;;2081008;28;20021;-61
2021/09/30 05:23:19;;;;;;;13.68;1.80;;;8.10;99.90;;;;;;2081389;28;20045;-61
2021/09/30 05:24:20;;;;;;;12.52;1.73;;;8.20;99.90;;;;;;2080835;28;20093;-61
2021/09/30 05:25:20;;;;;;;8.70;1.58;;;8.10;99.90;;;;;;2068634;28;20026;-61
2021/09/30 05:26:21;;;;;;;10.38;1.48;;;8.10;99.90;;;;;;2070312;28;20460;-61
2021/09/30 05:27:22;;;;;;;10.55;1.50;;;8.20;99.90;;;;;;2069109;28;20018;-61
2021/09/30 05:28:23;;;;;;;13.20;2.03;;;8.20;99.90;;;;;;2081154;28;20113;-61
2021/09/30 05:29:23;;;;;;;14.45;1.80;;;8.30;99.90;;;;;;2078985;28;20041;-61
2021/09/30 05:30:24;;;;;;;9.63;2.08;;;8.30;99.90;;;;;;2079914;28;20031;-61
2021/09/30 05:31:25;;;;;;;11.85;1.88;;;8.30;99.90;;;;;;2072656;28;20516;-60
2021/09/30 05:32:26;;;;;;;8.82;1.63;;;8.40;99.90;;;;;;2072155;28;20018;-60
2021/09/30 05:33:27;;;;;;;15.38;1.92;;;8.40;99.90;;;;;;2079423;28;20049;-61
2021/09/30 05:34:28;;;;;;;11.77;1.83;;;8.40;99.90;;;;;;2072801;28;20093;-61
2021/09/30 05:35:30;;;;;;;6.93;1.60;;;8.40;99.90;;;;;;2073077;28;20033;-61
2021/09/30 05:36:31;;;;;;;13.02;2.17;;;8.40;99.90;;;;;;2069785;28;20014;-60
2021/09/30 05:37:32;;;;;;;12.52;1.50;;;8.30;99.90;;;;;;2080122;28;20029;-61
2021/09/30 05:38:32;;;;;;;12.65;1.90;;;8.30;99.90;;;;;;2080148;28;20017;-61
2021/09/30 05:39:33;;;;;;;10.27;1.65;;;8.30;99.90;;;;;;2072803;28;20104;-61
2021/09/30 05:40:34;;;;;;;10.20;1.60;;;8.30;99.90;;;;;;2072725;28;20101;-61
2021/09/30 05:41:35;;;;;;;16.27;2.45;;;8.30;99.90;;;;;;2072730;28;20121;-61
2021/09/30 05:42:35;;;;;;;16.10;2.10;;;8.30;99.90;;;;;;2072896;28;20100;-61
2021/09/30 05:43:38;;;;;;;8.93;1.85;;;8.30;99.90;;;;;;2072456;28;20068;-61
2021/09/30 05:44:39;;;;;;;9.77;1.73;;;8.30;99.90;;;;;;2068634;28;20482;-60
2021/09/30 05:45:43;;;;;;;8.90;1.85;;;8.30;99.90;;;;;;2065314;28;20030;-61
2021/09/30 05:46:46;;;;;;;11.73;2.20;;;8.30;99.90;;;;;;2064882;28;20018;-61
2021/09/30 05:47:47;;;;;;;11.85;2.35;;;8.30;99.90;;;;;;2064709;28;20523;-60
2021/09/30 05:48:48;;;;;;;7.32;1.38;;;8.30;99.90;;;;;;2074688;28;20437;-60
2021/09/30 05:49:49;;;;;;;14.32;2.58;;;8.30;99.90;;;;;;2080986;28;20037;-61
2021/09/30 05:50:50;;;;;;;8.63;1.48;;;8.30;99.90;;;;;;2078352;28;20630;-60
2021/09/30 05:51:50;;;;;;;12.20;2.17;;;8.30;99.90;;;;;;2069926;28;20021;-60
2021/09/30 05:52:51;;;;;;;10.93;1.90;;;8.20;99.90;;;;;;2064814;28;20402;-60
2021/09/30 05:53:52;;;;;;;10.63;1.83;;;8.20;99.90;;;;;;2076988;28;20022;-60
2021/09/30 05:54:52;;;;;;;11.02;1.98;;;8.20;99.90;;;;;;2080202;28;20558;-60
2021/09/30 05:55:53;;;;;;;22.70;1.95;;;8.20;99.90;;;;;;2080264;28;20072;-60
2021/09/30 05:56:54;;;;;;;7.90;1.63;;;8.20;99.90;;;;;;2078540;28;20022;-60
2021/09/30 05:57:54;;;;;;;7.93;1.30;;;8.20;99.90;;;;;;2072885;28;20097;-61
2021/09/30 05:58:55;;;;;;;15.25;1.70;;;8.30;99.90;;;;;;2068700;28;20497;-61
2021/09/30 06:00:06;;;;;;;8.73;1.98;;;8.30;99.90;;;;;;2071898;28;20539;-60
2021/09/30 06:13:27;;;;;;;11.13;1.42;;;8.40;99.90;;;;;;2064042;28;20033;-60
2021/09/30 06:14:32;;;;;;;13.23;2.10;;;8.40;99.90;;;;;;2063603;28;20022;-60
2021/09/30 06:15:35;;;;;;;11.20;1.80;;;8.40;99.90;;;;;;2065531;28;20077;-61
2021/09/30 06:16:38;;;;;;;12.32;1.58;;;8.40;99.90;;;;;;2080590;28;20053;-61
2021/09/30 06:17:39;;;;;;;7.53;1.40;;;8.40;99.90;;;;;;2071629;28;20208;-61
2021/09/30 06:18:40;;;;;;;6.32;1.40;;;8.40;99.90;;;;;;2077118;28;20022;-61
2021/09/30 06:19:41;;;;;;;11.70;1.58;;;8.40;99.90;;;;;;2076255;28;20109;-60
2021/09/30 06:20:41;;;;;;;12.65;2.00;;;8.40;99.90;;;;;;2066485;28;20018;-61
2021/09/30 06:21:42;;;;;;;11.77;1.60;;;8.40;99.90;;;;;;2068749;28;20052;-60
2021/09/30 06:22:43;;;;;;;11.38;1.48;;;8.40;99.90;;;;;;2067042;28;20033;-60
2021/09/30 06:23:43;;;;;;;11.93;1.85;;;8.30;99.90;;;;;;2064479;28;20027;-60
2021/09/30 06:24:44;;;;;;;10.40;1.70;;;8.30;99.90;;;;;;2077367;28;20495;-60
2021/09/30 06:25:45;;;;;;;9.60;2.00;;;8.30;99.90;;;;;;2073937;28;20552;-60
2021/09/30 06:26:46;;;;;;;10.52;1.60;;;8.30;99.90;;;;;;2071350;28;20053;-61
2021/09/30 06:27:47;;;;;;;8.23;1.60;;;8.30;99.90;;;;;;2079062;28;20132;-60
2021/09/30 06:28:48;;;;;;;6.72;1.60;;;8.30;99.90;;;;;;2077687;28;20026;-60
2021/09/30 06:29:48;;;;;;;11.43;1.58;;;8.40;99.90;;;;;;2071560;28;20535;-65
2021/09/30 06:30:49;;;;;;;10.82;1.80;;;8.40;99.90;;;;;;2072829;28;20021;-60
2021/09/30 06:31:50;;;;;;;14.52;1.90;;;8.40;99.90;;;;;;2078205;28;20119;-61
2021/09/30 06:32:52;;;;;;;12.02;1.95;;;8.40;99.90;;;;;;2072686;28;20033;-60
2021/09/30 06:33:53;;;;;;;10.15;1.80;;;8.40;99.90;;;;;;2073423;28;20018;-60
2021/09/30 06:34:53;;;;;;;11.45;1.48;;;8.40;99.90;;;;;;2073324;28;20672;-60
2021/09/30 06:35:55;;;;;;;6.93;1.75;;;8.30;99.90;;;;;;2077945;28;20505;-61
2021/09/30 06:36:56;;;;;;;18.98;2.25;;;8.30;99.90;;;;;;2072656;28;20014;-61
2021/09/30 06:37:56;;;;;;;11.10;2.13;;;8.40;99.90;;;;;;2064916;28;20031;-60
2021/09/30 06:38:57;;;;;;;11.35;1.83;;;8.40;99.90;;;;;;2070008;28;20042;-61
2021/09/30 06:39:58;;;;;;;10.18;1.88;;;8.40;99.90;;;;;;2067109;28;20041;-60
2021/09/30 06:40:59;;;;;;;13.20;2.45;;;8.40;99.90;;;;;;2067615;28;20022;-60
2021/09/30 06:41:59;;;;;;;12.20;1.80;;;8.40;99.90;;;;;;2065421;28;20030;-60
2021/09/30 06:43:00;;;;;;;12.20;1.65;;;8.40;99.90;;;;;;2064093;28;20094;-60
2021/09/30 06:44:01;;;;;;;10.47;1.70;;;8.40;99.90;;;;;;2067526;28;20034;-60
2021/09/30 06:45:03;;;;;;;15.57;1.50;;;8.50;99.90;;;;;;2064310;28;20312;-60
2021/09/30 06:46:04;;;;;;;9.45;1.75;;;8.50;99.90;;;;;;2064821;28;20026;-60
2021/09/30 06:47:05;;;;;;;10.18;1.67;;;8.50;99.90;;;;;;2075195;28;20056;-60
2021/09/30 06:48:05;;;;;;;7.72;1.88;;;8.60;99.90;;;;;;2071157;28;20048;-60
2021/09/30 06:49:06;;;;;;;14.57;2.08;;;8.60;99.90;;;;;;2066613;28;20115;-60
2021/09/30 06:50:10;;;;;;;13.52;1.80;;;8.60;99.90;;;;;;2071674;28;20026;-60
2021/09/30 06:51:11;;;;;;;12.65;1.73;;;8.70;99.90;;;;;;2064109;28;20112;-60
2021/09/30 06:52:12;;;;;;;9.70;1.80;;;8.70;99.90;;;;;;2065583;28;20081;-60
2021/09/30 06:53:13;;;;;;;8.00;1.50;;;8.70;99.90;;;;;;2064229;28;20033;-61
2021/09/30 06:54:13;;;;;;;7.70;1.37;;;8.80;99.90;;;;;;2068507;28;20451;-60
2021/09/30 06:55:14;;;;;;;8.57;1.70;;;8.80;99.90;;;;;;2066390;28;20273;-60
2021/09/30 06:56:18;;;;;;;11.30;1.90;;;8.90;99.90;;;;;;2064276;28;20110;-60
2021/09/30 06:57:21;;;;;;;12.73;1.77;;;8.90;99.90;;;;;;2070174;28;20363;-60
2021/09/30 06:58:24;;;;;;;13.48;2.20;;;9.00;99.90;;;;;;2072498;28;20028;-60
2021/09/30 06:59:34;;;;;;;10.18;1.48;;;9.00;99.90;;;;;;2072437;28;20025;-60
2021/09/30 07:00:34;;;;;;;15.77;1.70;;;9.00;99.90;;;;;;2076096;28;20498;-60
2021/09/30 07:01:37;;;;;;;16.33;1.88;;;9.00;99.90;;;;;;2062195;28;20088;-60
2021/09/30 07:02:40;;;;;;;7.70;1.55;;;9.00;99.90;;;;;;2076064;28;20494;-60
2021/09/30 07:03:41;;;;;;;7.65;1.40;;;9.10;99.90;;;;;;2067123;28;20076;-60
2021/09/30 07:04:42;;;;;;;9.38;1.80;;;9.10;99.90;;;;;;2078217;28;20026;-60
2021/09/30 07:05:42;;;;;;;11.40;1.73;;;9.10;99.90;;;;;;2073145;28;20055;-60
2021/09/30 07:06:43;;;;;;;14.25;3.33;;;9.10;99.90;;;;;;2064171;28;20041;-60
2021/09/30 07:07:44;;;;;;;10.90;1.65;;;9.10;99.90;;;;;;2075155;28;20013;-60
2021/09/30 07:08:45;;;;;;;15.48;2.97;;;9.20;99.90;;;;;;2072124;28;20022;-60
2021/09/30 07:09:46;;;;;;;11.13;1.95;;;9.20;99.90;;;;;;2069646;28;20029;-60
2021/09/30 07:10:47;;;;;;;15.95;2.08;;;9.20;99.90;;;;;;2069937;28;20018;-60
2021/09/30 07:11:48;;;;;;;8.27;1.52;;;9.20;99.90;;;;;;2074094;28;20433;-60
2021/09/30 07:12:48;;;;;;;9.60;1.88;;;9.30;99.90;;;;;;2083817;28;20036;-60
2021/09/30 07:13:49;;;;;;;10.75;2.03;;;9.30;99.90;;;;;;2080882;28;20009;-60
2021/09/30 07:14:50;;;;;;;10.90;2.00;;;9.40;99.90;;;;;;2075391;28;20032;-60
2021/09/30 07:15:51;;;;;;;7.15;2.10;;;9.40;99.90;;;;;;2066600;28;20030;-60
2021/09/30 07:16:52;;;;;;;11.80;2.17;;;9.40;99.90;;;;;;2071046;28;20085;-60
2021/09/30 07:17:53;;;;;;;11.38;2.08;;;9.50;99.90;;;;;;2074485;28;20077;-60
2021/09/30 07:18:53;;;;;;;15.98;1.83;;;9.50;99.90;;;;;;2075362;28;20060;-60
2021/09/30 07:19:55;;;;;;;9.60;1.63;;;9.50;99.90;;;;;;2072319;28;20022;-60
2021/09/30 07:20:57;;;;;;;9.02;1.80;;;9.50;99.90;;;;;;2068401;28;20034;-60
2021/09/30 07:21:58;;;;;;;11.80;1.80;;;9.60;99.90;;;;;;2062143;28;20153;-60
2021/09/30 07:22:59;;;;;;;9.13;2.00;;;9.60;99.90;;;;;;2065632;28;20117;-60
2021/09/30 07:24:00;;;;;;;10.50;2.00;;;9.60;99.90;;;;;;2066965;28;20033;-60
2021/09/30 07:25:02;;;;;;;8.23;1.47;;;9.60;99.90;;;;;;2065946;28;20493;-59
2021/09/30 07:26:03;;;;;;;16.42;2.33;;;9.60;99.90;;;;;;2065923;28;20326;-60
2021/09/30 07:27:05;;;;;;;14.27;1.70;;;9.60;99.90;;;;;;2070661;28;20445;-60
2021/09/30 07:28:06;;;;;;;9.45;1.90;;;9.60;99.90;;;;;;2075152;28;20047;-60
2021/09/30 07:29:07;;;;;;;6.63;1.65;;;9.70;99.90;;;;;;2074793;28;20026;-60
2021/09/30 07:30:08;;;;;;;11.98;1.73;;;9.70;99.90;;;;;;2076839;28;20045;-60
2021/09/30 07:31:08;;;;;;;12.90;1.75;;;9.70;99.90;;;;;;2066846;28;20025;-60
2021/09/30 07:32:09;;;;;;;8.45;2.05;;;9.70;99.90;;;;;;2075547;28;20025;-60
2021/09/30 07:33:11;;;;;;;12.95;2.33;;;9.70;99.90;;;;;;2074972;28;20570;-60
2021/09/30 07:34:12;;;;;;;10.18;1.77;;;9.80;99.90;;;;;;2068370;28;20113;-60
2021/09/30 07:35:13;;;;;;;9.27;2.08;;;9.80;99.90;;;;;;2068842;28;20045;-60
2021/09/30 07:36:13;;;;;;;10.30;1.85;;;9.80;99.90;;;;;;2066475;28;20038;-60
2021/09/30 07:37:14;;;;;;;9.77;2.28;;;9.80;99.90;;;;;;2071475;28;20069;-60
2021/09/30 07:38:15;;;;;;;13.23;2.15;;;9.90;99.90;;;;;;2074802;28;20036;-60
2021/09/30 07:39:17;;;;;;;8.77;1.60;;;9.90;99.90;;;;;;2079742;28;20026;-60
2021/09/30 07:40:18;;;;;;;12.63;2.00;;;10.00;99.90;;;;;;2075666;28;20105;-60
2021/09/30 07:41:19;;;;;;;11.55;1.90;;;10.10;99.90;;;;;;2072260;28;20026;-60
2021/09/30 07:42:20;;;;;;;10.70;1.77;;;10.10;99.90;;;;;;2060849;28;20841;-60
2021/09/30 07:43:22;;;;;;;10.57;1.93;;;10.20;99.90;;;;;;2072287;28;20026;-60
2021/09/30 07:44:22;;;;;;;13.57;2.10;;;10.30;99.90;;;;;;2075235;28;20265;-60
2021/09/30 07:45:23;;;;;;;5.22;1.58;;;10.40;99.90;;;;;;2070310;28;20770;-60
2021/09/30 07:46:24;;;;;;;6.50;1.77;;;10.40;99.90;;;;;;2070635;28;20042;-60
2021/09/30 07:47:27;;;;;;;6.15;1.52;;;10.50;99.90;;;;;;2069189;28;20058;-60
2021/09/30 07:48:27;;;;;;;10.90;1.77;;;10.60;99.90;;;;;;2070872;28;20450;-60
2021/09/30 07:49:28;;;;;;;10.95;1.67;;;10.70;99.90;;;;;;2076893;28;20116;-60
2021/09/30 07:50:29;;;;;;;10.05;2.20;;;10.80;99.90;;;;;;2079692;28;20029;-60
2021/09/30 07:51:30;;;;;;;12.32;2.15;;;10.90;99.90;;;;;;2078499;28;20503;-60
2021/09/30 07:52:31;;;;;;;9.18;2.00;;;10.90;99.90;;;;;;2075150;28;20097;-60
2021/09/30 07:53:33;;;;;;;8.80;1.65;;;11.00;99.90;;;;;;2067744;28;20061;-61
2021/09/30 07:54:33;;;;;;;9.57;1.80;;;11.20;99.90;;;;;;2070892;28;20018;-60
2021/09/30 07:55:34;;;;;;;10.82;1.73;;;11.20;99.90;;;;;;2075522;28;20026;-60
2021/09/30 07:56:35;;;;;;;8.82;2.10;;;11.30;99.90;;;;;;2073314;28;20093;-60
2021/09/30 07:57:36;;;;;;;8.25;1.90;;;11.30;99.90;;;;;;2074874;28;20034;-60
2021/09/30 07:58:36;;;;;;;11.40;1.77;;;11.40;99.90;;;;;;2073166;28;20100;-61
2021/09/30 07:59:38;;;;;;;12.45;2.00;;;11.60;99.90;;;;;;2077417;28;20104;-60
2021/09/30 08:00:40;;;;;;;8.65;1.73;;;11.70;99.90;;;;;;2076974;28;20021;-60
2021/09/30 08:01:41;;;;;;;6.40;2.28;;;11.80;99.90;;;;;;2068314;28;20410;-61
2021/09/30 08:02:42;;;;;;;8.23;1.60;;;11.90;99.90;;;;;;2066278;28;20097;-60
2021/09/30 08:03:42;;;;;;;10.82;1.77;;;12.00;99.90;;;;;;2070528;28;20478;-60
2021/09/30 08:04:43;;;;;;;10.95;2.33;;;12.00;99.90;;;;;;2077512;28;20022;-60
2021/09/30 08:05:43;;;;;;;11.75;2.10;;;12.10;99.90;;;;;;2076833;28;20017;-61
2021/09/30 08:06:44;;;;;;;14.38;2.28;;;12.20;99.90;;;;;;2077356;28;20024;-60
2021/09/30 08:07:47;;;;;;;7.00;1.92;;;12.30;99.90;;;;;;2071576;28;20018;-60
2021/09/30 08:08:47;;;;;;;13.52;2.10;;;12.30;99.90;;;;;;2074165;28;20014;-61
2021/09/30 08:09:48;;;;;;;8.85;1.98;;;12.40;99.90;;;;;;2068527;28;21011;-60
2021/09/30 08:10:49;;;;;;;7.13;1.63;;;12.50;99.90;;;;;;2076981;28;20014;-61
2021/09/30 08:11:50;;;;;;;16.42;2.53;;;12.50;99.90;;;;;;2073940;28;20053;-60
2021/09/30 08:12:50;;;;;;;7.72;1.80;;;12.50;99.90;;;;;;2084122;28;20021;-61
2021/09/30 08:13:51;;;;;;;15.93;2.00;;;12.60;99.90;;;;;;2077208;28;20574;-60
2021/09/30 08:14:52;;;;;;;11.80;2.67;;;12.50;99.90;;;;;;2068952;28;20030;-60
2021/09/30 08:15:53;;;;;;;15.15;2.72;;;12.50;99.90;;;;;;2070172;28;20084;-61
2021/09/30 08:16:55;;;;;;;8.95;1.58;;;12.50;99.90;;;;;;2076252;28;20501;-60
2021/09/30 08:17:55;;;;;;;11.52;2.10;;;12.50;99.90;;;;;;2070674;28;20482;-60